sensor_id;sensor_type;location;lat;lon;timestamp;pressure;altitude;pressure_sealevel;temperature;humidity
80382;BME280;69692;55.820;37.490;2024-02-15T00:00:37;101177.13;;;-9.63;72.92
80382;BME280;69692;55.820;37.490;2024-02-15T00:03:03;101164.47;;;-9.72;71.89
80382;BME280;69692;55.820;37.490;2024-02-15T00:05:33;101177.00;;;-9.80;72.07
80382;BME280;69692;55.820;37.490;2024-02-15T00:08:02;101179.38;;;-9.75;72.95
80382;BME280;69692;55.820;37.490;2024-02-15T00:10:29;101176.66;;;-9.72;72.96
80382;BME280;69692;55.820;37.490;2024-02-15T00:12:55;101176.16;;;-9.80;72.80
80382;BME280;69692;55.820;37.490;2024-02-15T00:15:21;101175.28;;;-9.81;72.88
80382;BME280;69692;55.820;37.490;2024-02-15T00:17:46;101176.41;;;-9.66;72.82
80382;BME280;69692;55.820;37.490;2024-02-15T00:20:13;101180.78;;;-9.67;72.34
80382;BME280;69692;55.820;37.490;2024-02-15T00:22:39;101179.66;;;-9.81;72.45
80382;BME280;69692;55.820;37.490;2024-02-15T00:25:06;101173.97;;;-9.71;72.74
80382;BME280;69692;55.820;37.490;2024-02-15T00:27:37;101169.75;;;-9.73;72.12
80382;BME280;69692;55.820;37.490;2024-02-15T00:30:03;101171.25;;;-9.68;72.14
80382;BME280;69692;55.820;37.490;2024-02-15T00:32:34;101168.13;;;-9.76;71.91
80382;BME280;69692;55.820;37.490;2024-02-15T00:35:00;101164.28;;;-9.67;71.89
80382;BME280;69692;55.820;37.490;2024-02-15T00:37:27;101155.34;;;-9.82;71.35
80382;BME280;69692;55.820;37.490;2024-02-15T00:39:53;101145.84;;;-9.83;71.61
80382;BME280;69692;55.820;37.490;2024-02-15T00:42:19;101148.41;;;-9.81;71.43
80382;BME280;69692;55.820;37.490;2024-02-15T00:44:45;101151.31;;;-9.69;71.59
80382;BME280;69692;55.820;37.490;2024-02-15T00:47:11;101150.03;;;-9.79;71.07
80382;BME280;69692;55.820;37.490;2024-02-15T00:49:38;101147.09;;;-9.92;71.56
80382;BME280;69692;55.820;37.490;2024-02-15T00:52:05;101142.66;;;-9.89;71.80
80382;BME280;69692;55.820;37.490;2024-02-15T00:54:31;101161.31;;;-10.00;72.22
80382;BME280;69692;55.820;37.490;2024-02-15T00:56:57;101144.16;;;-10.04;72.19
80382;BME280;69692;55.820;37.490;2024-02-15T00:59:22;101145.72;;;-10.00;72.67
80382;BME280;69692;55.820;37.490;2024-02-15T01:01:48;101145.25;;;-10.10;72.60
80382;BME280;69692;55.820;37.490;2024-02-15T01:04:15;101145.00;;;-10.04;73.05
80382;BME280;69692;55.820;37.490;2024-02-15T01:06:40;101146.09;;;-10.09;73.30
80382;BME280;69692;55.820;37.490;2024-02-15T01:09:07;101148.63;;;-10.08;72.78
80382;BME280;69692;55.820;37.490;2024-02-15T01:11:34;101144.22;;;-10.06;73.06
80382;BME280;69692;55.820;37.490;2024-02-15T01:14:02;101150.91;;;-10.00;72.92
80382;BME280;69692;55.820;37.490;2024-02-15T01:16:29;101143.16;;;-10.02;72.31
80382;BME280;69692;55.820;37.490;2024-02-15T01:18:55;101147.88;;;-9.89;72.22
80382;BME280;69692;55.820;37.490;2024-02-15T01:21:20;101145.63;;;-9.99;72.76
80382;BME280;69692;55.820;37.490;2024-02-15T01:23:48;101140.91;;;-10.09;72.43
80382;BME280;69692;55.820;37.490;2024-02-15T01:26:13;101132.97;;;-10.06;72.23
80382;BME280;69692;55.820;37.490;2024-02-15T01:28:40;101138.31;;;-9.89;72.57
80382;BME280;69692;55.820;37.490;2024-02-15T01:31:10;101139.28;;;-9.92;71.35
80382;BME280;69692;55.820;37.490;2024-02-15T01:33:37;101145.72;;;-10.00;72.34
80382;BME280;69692;55.820;37.490;2024-02-15T01:36:04;101139.34;;;-9.93;72.68
80382;BME280;69692;55.820;37.490;2024-02-15T01:38:30;101138.03;;;-10.03;72.12
80382;BME280;69692;55.820;37.490;2024-02-15T01:40:57;101136.03;;;-9.97;71.62
80382;BME280;69692;55.820;37.490;2024-02-15T01:43:23;101148.44;;;-10.03;71.86
80382;BME280;69692;55.820;37.490;2024-02-15T01:45:49;101152.09;;;-10.07;72.33
80382;BME280;69692;55.820;37.490;2024-02-15T01:48:15;101145.91;;;-10.05;72.35
80382;BME280;69692;55.820;37.490;2024-02-15T01:50:41;101150.91;;;-10.00;71.80
80382;BME280;69692;55.820;37.490;2024-02-15T01:53:09;101149.47;;;-10.07;72.17
80382;BME280;69692;55.820;37.490;2024-02-15T01:55:37;101147.91;;;-10.11;72.29
80382;BME280;69692;55.820;37.490;2024-02-15T01:58:04;101151.31;;;-10.09;72.42
80382;BME280;69692;55.820;37.490;2024-02-15T02:00:30;101148.81;;;-10.12;72.47
80382;BME280;69692;55.820;37.490;2024-02-15T02:02:58;101148.16;;;-10.17;72.82
80382;BME280;69692;55.820;37.490;2024-02-15T02:05:30;101138.13;;;-10.27;72.30
80382;BME280;69692;55.820;37.490;2024-02-15T02:07:57;101140.72;;;-10.25;73.29
80382;BME280;69692;55.820;37.490;2024-02-15T02:10:25;101143.47;;;-10.30;73.67
80382;BME280;69692;55.820;37.490;2024-02-15T02:12:53;101138.88;;;-10.23;73.17
80382;BME280;69692;55.820;37.490;2024-02-15T02:15:19;101149.44;;;-10.28;74.13
80382;BME280;69692;55.820;37.490;2024-02-15T02:17:49;101145.50;;;-10.16;74.13
80382;BME280;69692;55.820;37.490;2024-02-15T02:20:16;101153.06;;;-10.10;73.52
80382;BME280;69692;55.820;37.490;2024-02-15T02:22:46;101156.38;;;-10.06;73.43
80382;BME280;69692;55.820;37.490;2024-02-15T02:25:13;101154.75;;;-10.09;73.71
80382;BME280;69692;55.820;37.490;2024-02-15T02:27:39;101157.94;;;-10.02;73.73
80382;BME280;69692;55.820;37.490;2024-02-15T02:30:12;101147.03;;;-9.90;73.71
80382;BME280;69692;55.820;37.490;2024-02-15T02:32:45;101147.16;;;-9.93;73.13
80382;BME280;69692;55.820;37.490;2024-02-15T02:35:14;101149.09;;;-9.98;73.19
80382;BME280;69692;55.820;37.490;2024-02-15T02:37:43;101143.94;;;-10.00;73.09
80382;BME280;69692;55.820;37.490;2024-02-15T02:40:09;101147.94;;;-9.91;73.48
80382;BME280;69692;55.820;37.490;2024-02-15T02:42:51;101143.31;;;-9.84;73.14
80382;BME280;69692;55.820;37.490;2024-02-15T02:45:22;101142.94;;;-9.96;72.73
80382;BME280;69692;55.820;37.490;2024-02-15T02:47:49;101146.75;;;-10.04;73.22
80382;BME280;69692;55.820;37.490;2024-02-15T02:50:16;101149.91;;;-9.96;72.91
80382;BME280;69692;55.820;37.490;2024-02-15T02:52:43;101162.06;;;-9.97;73.16
80382;BME280;69692;55.820;37.490;2024-02-15T02:55:09;101157.81;;;-9.99;73.42
80382;BME280;69692;55.820;37.490;2024-02-15T02:57:38;101161.03;;;-9.93;73.39
80382;BME280;69692;55.820;37.490;2024-02-15T03:00:09;101154.84;;;-9.90;73.22
80382;BME280;69692;55.820;37.490;2024-02-15T03:02:41;101155.31;;;-9.80;73.39
80382;BME280;69692;55.820;37.490;2024-02-15T03:05:07;101170.31;;;-9.87;72.96
80382;BME280;69692;55.820;37.490;2024-02-15T03:07:35;101169.53;;;-9.89;72.93
80382;BME280;69692;55.820;37.490;2024-02-15T03:10:04;101158.78;;;-10.02;73.35
80382;BME280;69692;55.820;37.490;2024-02-15T03:12:34;101164.72;;;-9.98;73.22
80382;BME280;69692;55.820;37.490;2024-02-15T03:15:04;101160.19;;;-9.93;73.15
80382;BME280;69692;55.820;37.490;2024-02-15T03:17:30;101157.22;;;-10.06;72.68
80382;BME280;69692;55.820;37.490;2024-02-15T03:19:59;101172.50;;;-9.98;73.42
80382;BME280;69692;55.820;37.490;2024-02-15T03:22:27;101175.59;;;-9.88;73.35
80382;BME280;69692;55.820;37.490;2024-02-15T03:24:55;101175.41;;;-9.84;73.18
80382;BME280;69692;55.820;37.490;2024-02-15T03:27:21;101176.56;;;-9.91;72.77
80382;BME280;69692;55.820;37.490;2024-02-15T03:29:49;101185.44;;;-9.95;73.19
80382;BME280;69692;55.820;37.490;2024-02-15T03:32:15;101185.84;;;-10.06;73.35
80382;BME280;69692;55.820;37.490;2024-02-15T03:34:42;101184.44;;;-10.14;74.18
80382;BME280;69692;55.820;37.490;2024-02-15T03:37:08;101185.19;;;-10.11;74.06
80382;BME280;69692;55.820;37.490;2024-02-15T03:39:35;101181.41;;;-10.24;74.24
80382;BME280;69692;55.820;37.490;2024-02-15T03:42:02;101181.78;;;-10.13;75.96
80382;BME280;69692;55.820;37.490;2024-02-15T03:44:27;101182.34;;;-10.25;75.32
80382;BME280;69692;55.820;37.490;2024-02-15T03:46:53;101177.97;;;-10.25;75.85
80382;BME280;69692;55.820;37.490;2024-02-15T03:49:20;101187.13;;;-10.16;75.29
80382;BME280;69692;55.820;37.490;2024-02-15T03:51:48;101176.91;;;-10.20;75.20
80382;BME280;69692;55.820;37.490;2024-02-15T03:54:14;101185.50;;;-10.18;74.95
80382;BME280;69692;55.820;37.490;2024-02-15T03:56:48;101187.47;;;-10.24;75.01
80382;BME280;69692;55.820;37.490;2024-02-15T03:59:17;101195.00;;;-10.17;74.76
80382;BME280;69692;55.820;37.490;2024-02-15T04:01:45;101194.38;;;-10.23;74.86
80382;BME280;69692;55.820;37.490;2024-02-15T04:04:13;101195.63;;;-10.11;75.79
80382;BME280;69692;55.820;37.490;2024-02-15T04:06:39;101198.50;;;-10.18;75.53
80382;BME280;69692;55.820;37.490;2024-02-15T04:09:07;101196.97;;;-10.23;75.09
80382;BME280;69692;55.820;37.490;2024-02-15T04:11:33;101192.81;;;-10.06;75.35
80382;BME280;69692;55.820;37.490;2024-02-15T04:13:59;101205.69;;;-10.03;76.42
80382;BME280;69692;55.820;37.490;2024-02-15T04:16:25;101200.69;;;-10.08;79.57
80382;BME280;69692;55.820;37.490;2024-02-15T04:18:51;101206.75;;;-10.07;78.80
80382;BME280;69692;55.820;37.490;2024-02-15T04:21:17;101183.53;;;-10.13;74.61
80382;BME280;69692;55.820;37.490;2024-02-15T04:23:45;101209.06;;;-10.21;74.91
80382;BME280;69692;55.820;37.490;2024-02-15T04:26:11;101195.81;;;-10.37;75.04
80382;BME280;69692;55.820;37.490;2024-02-15T04:28:42;101189.81;;;-10.39;75.50
80382;BME280;69692;55.820;37.490;2024-02-15T04:31:08;101192.50;;;-10.41;75.44
80382;BME280;69692;55.820;37.490;2024-02-15T04:33:34;101190.53;;;-10.36;76.02
80382;BME280;69692;55.820;37.490;2024-02-15T04:36:00;101192.91;;;-10.30;75.56
80382;BME280;69692;55.820;37.490;2024-02-15T04:38:30;101194.97;;;-10.38;74.90
80382;BME280;69692;55.820;37.490;2024-02-15T04:40:56;101196.59;;;-10.35;75.01
80382;BME280;69692;55.820;37.490;2024-02-15T04:43:22;101195.31;;;-10.47;74.86
80382;BME280;69692;55.820;37.490;2024-02-15T04:45:49;101203.78;;;-10.42;75.19
80382;BME280;69692;55.820;37.490;2024-02-15T04:48:17;101197.97;;;-10.48;75.23
80382;BME280;69692;55.820;37.490;2024-02-15T04:50:44;101206.81;;;-10.52;75.21
80382;BME280;69692;55.820;37.490;2024-02-15T04:53:11;101204.88;;;-10.47;75.76
80382;BME280;69692;55.820;37.490;2024-02-15T04:55:37;101196.72;;;-10.38;75.38
80382;BME280;69692;55.820;37.490;2024-02-15T04:58:03;101204.34;;;-10.34;74.66
80382;BME280;69692;55.820;37.490;2024-02-15T05:00:30;101200.94;;;-10.36;75.11
80382;BME280;69692;55.820;37.490;2024-02-15T05:02:55;101207.41;;;-10.46;75.64
80382;BME280;69692;55.820;37.490;2024-02-15T05:05:21;101215.84;;;-10.39;75.94
80382;BME280;69692;55.820;37.490;2024-02-15T05:07:49;101209.34;;;-10.29;75.76
80382;BME280;69692;55.820;37.490;2024-02-15T05:10:16;101207.50;;;-10.26;75.44
80382;BME280;69692;55.820;37.490;2024-02-15T05:12:42;101212.69;;;-10.26;75.44
80382;BME280;69692;55.820;37.490;2024-02-15T05:15:15;101219.31;;;-10.18;75.80
80382;BME280;69692;55.820;37.490;2024-02-15T05:17:43;101227.63;;;-10.09;76.07
80382;BME280;69692;55.820;37.490;2024-02-15T05:20:09;101227.44;;;-10.04;75.36
80382;BME280;69692;55.820;37.490;2024-02-15T05:22:38;101234.56;;;-9.87;75.47
80382;BME280;69692;55.820;37.490;2024-02-15T05:25:07;101242.78;;;-9.98;75.52
80382;BME280;69692;55.820;37.490;2024-02-15T05:27:34;101251.94;;;-9.88;75.06
80382;BME280;69692;55.820;37.490;2024-02-15T05:30:02;101255.66;;;-9.94;75.62
80382;BME280;69692;55.820;37.490;2024-02-15T05:32:33;101250.59;;;-9.98;75.33
80382;BME280;69692;55.820;37.490;2024-02-15T05:35:00;101258.78;;;-9.85;75.21
80382;BME280;69692;55.820;37.490;2024-02-15T05:37:27;101258.66;;;-9.82;75.34
80382;BME280;69692;55.820;37.490;2024-02-15T05:39:53;101250.91;;;-9.84;75.82
80382;BME280;69692;55.820;37.490;2024-02-15T05:42:19;101268.78;;;-9.75;75.11
80382;BME280;69692;55.820;37.490;2024-02-15T05:44:45;101260.25;;;-9.78;74.90
80382;BME280;69692;55.820;37.490;2024-02-15T05:47:11;101265.19;;;-9.72;74.74
80382;BME280;69692;55.820;37.490;2024-02-15T05:49:37;101275.13;;;-9.60;74.87
80382;BME280;69692;55.820;37.490;2024-02-15T05:52:03;101279.13;;;-9.51;74.68
80382;BME280;69692;55.820;37.490;2024-02-15T05:54:28;101274.69;;;-9.49;74.08
80382;BME280;69692;55.820;37.490;2024-02-15T05:56:55;101284.81;;;-9.64;75.06
80382;BME280;69692;55.820;37.490;2024-02-15T05:59:21;101279.63;;;-9.64;74.99
80382;BME280;69692;55.820;37.490;2024-02-15T06:01:47;101281.94;;;-9.57;74.58
80382;BME280;69692;55.820;37.490;2024-02-15T06:04:15;101286.03;;;-9.50;74.15
80382;BME280;69692;55.820;37.490;2024-02-15T06:06:42;101279.53;;;-9.62;73.85
80382;BME280;69692;55.820;37.490;2024-02-15T06:09:08;101285.78;;;-9.66;73.83
80382;BME280;69692;55.820;37.490;2024-02-15T06:11:34;101284.94;;;-9.67;74.13
80382;BME280;69692;55.820;37.490;2024-02-15T06:14:01;101286.81;;;-9.70;74.12
80382;BME280;69692;55.820;37.490;2024-02-15T06:16:27;101283.59;;;-9.77;74.27
80382;BME280;69692;55.820;37.490;2024-02-15T06:18:52;101285.50;;;-9.80;73.95
80382;BME280;69692;55.820;37.490;2024-02-15T06:21:18;101289.44;;;-9.92;74.33
80382;BME280;69692;55.820;37.490;2024-02-15T06:23:46;101305.38;;;-10.01;74.19
80382;BME280;69692;55.820;37.490;2024-02-15T06:26:13;101301.28;;;-10.07;74.24
80382;BME280;69692;55.820;37.490;2024-02-15T06:28:39;101286.97;;;-10.18;74.68
80382;BME280;69692;55.820;37.490;2024-02-15T06:31:23;101301.63;;;-10.16;75.56
80382;BME280;69692;55.820;37.490;2024-02-15T06:37:37;101298.72;;;-10.08;74.88
80382;BME280;69692;55.820;37.490;2024-02-15T06:40:22;101290.22;;;-10.13;74.08
80382;BME280;69692;55.820;37.490;2024-02-15T06:42:48;101291.53;;;-10.24;74.47
80382;BME280;69692;55.820;37.490;2024-02-15T06:45:14;101294.22;;;-10.25;74.15
80382;BME280;69692;55.820;37.490;2024-02-15T06:47:46;101288.72;;;-10.19;74.67
80382;BME280;69692;55.820;37.490;2024-02-15T06:50:12;101299.13;;;-10.19;75.02
80382;BME280;69692;55.820;37.490;2024-02-15T06:52:39;101292.78;;;-10.12;74.29
80382;BME280;69692;55.820;37.490;2024-02-15T06:55:06;101297.25;;;-10.15;73.29
80382;BME280;69692;55.820;37.490;2024-02-15T06:57:35;101294.00;;;-10.20;73.96
80382;BME280;69692;55.820;37.490;2024-02-15T07:00:05;101305.25;;;-10.20;74.21
80382;BME280;69692;55.820;37.490;2024-02-15T07:02:35;101298.59;;;-10.27;74.40
80382;BME280;69692;55.820;37.490;2024-02-15T07:05:01;101304.41;;;-10.20;74.50
80382;BME280;69692;55.820;37.490;2024-02-15T07:07:28;101306.56;;;-10.32;74.20
80382;BME280;69692;55.820;37.490;2024-02-15T07:09:54;101298.78;;;-10.32;74.60
80382;BME280;69692;55.820;37.490;2024-02-15T07:12:20;101292.59;;;-10.29;74.14
80382;BME280;69692;55.820;37.490;2024-02-15T07:14:47;101293.97;;;-10.42;74.83
80382;BME280;69692;55.820;37.490;2024-02-15T07:17:13;101295.50;;;-10.37;74.98
80382;BME280;69692;55.820;37.490;2024-02-15T07:19:45;101298.38;;;-10.21;73.93
80382;BME280;69692;55.820;37.490;2024-02-15T07:22:15;101299.13;;;-10.19;73.83
80382;BME280;69692;55.820;37.490;2024-02-15T07:24:42;101299.41;;;-10.03;73.90
80382;BME280;69692;55.820;37.490;2024-02-15T07:27:08;101319.56;;;-9.86;73.09
80382;BME280;69692;55.820;37.490;2024-02-15T07:29:35;101307.72;;;-9.94;72.18
80382;BME280;69692;55.820;37.490;2024-02-15T07:32:06;101301.16;;;-9.82;72.75
80382;BME280;69692;55.820;37.490;2024-02-15T07:34:33;101303.75;;;-9.82;71.58
80382;BME280;69692;55.820;37.490;2024-02-15T07:37:01;101312.06;;;-9.72;71.48
80382;BME280;69692;55.820;37.490;2024-02-15T07:39:27;101310.13;;;-9.67;72.28
80382;BME280;69692;55.820;37.490;2024-02-15T07:41:54;101312.06;;;-9.50;72.03
80382;BME280;69692;55.820;37.490;2024-02-15T07:44:20;101310.84;;;-9.42;70.74
80382;BME280;69692;55.820;37.490;2024-02-15T07:46:47;101323.44;;;-9.31;70.49
80382;BME280;69692;55.820;37.490;2024-02-15T07:49:13;101326.56;;;-9.23;70.91
80382;BME280;69692;55.820;37.490;2024-02-15T07:51:40;101321.41;;;-9.24;70.47
80382;BME280;69692;55.820;37.490;2024-02-15T07:54:05;101325.91;;;-9.08;70.61
80382;BME280;69692;55.820;37.490;2024-02-15T07:56:31;101325.53;;;-8.98;69.26
80382;BME280;69692;55.820;37.490;2024-02-15T07:58:57;101335.28;;;-9.24;68.27
80382;BME280;69692;55.820;37.490;2024-02-15T08:01:23;101332.47;;;-9.62;67.86
80382;BME280;69692;55.820;37.490;2024-02-15T08:03:49;101333.56;;;-9.67;69.59
80382;BME280;69692;55.820;37.490;2024-02-15T08:06:16;101333.09;;;-9.77;69.93
80382;BME280;69692;55.820;37.490;2024-02-15T08:08:43;101338.34;;;-9.78;71.20
80382;BME280;69692;55.820;37.490;2024-02-15T08:11:16;101330.22;;;-9.71;70.36
80382;BME280;69692;55.820;37.490;2024-02-15T08:13:51;101343.81;;;-9.63;70.28
80382;BME280;69692;55.820;37.490;2024-02-15T08:16:21;101335.56;;;-9.74;69.67
80382;BME280;69692;55.820;37.490;2024-02-15T08:18:53;101340.34;;;-9.85;69.86
80382;BME280;69692;55.820;37.490;2024-02-15T08:21:31;101337.91;;;-9.68;69.85
80382;BME280;69692;55.820;37.490;2024-02-15T08:24:02;101343.88;;;-9.64;70.07
80382;BME280;69692;55.820;37.490;2024-02-15T08:26:35;101332.34;;;-9.58;69.80
80382;BME280;69692;55.820;37.490;2024-02-15T08:29:04;101330.25;;;-9.49;69.66
80382;BME280;69692;55.820;37.490;2024-02-15T08:31:30;101334.34;;;-9.43;69.38
80382;BME280;69692;55.820;37.490;2024-02-15T08:33:59;101342.22;;;-9.45;70.35
80382;BME280;69692;55.820;37.490;2024-02-15T08:36:26;101332.47;;;-9.40;69.56
80382;BME280;69692;55.820;37.490;2024-02-15T08:38:51;101331.69;;;-9.42;69.37
80382;BME280;69692;55.820;37.490;2024-02-15T08:41:17;101341.94;;;-9.37;69.53
80382;BME280;69692;55.820;37.490;2024-02-15T08:43:44;101336.47;;;-9.31;69.33
80382;BME280;69692;55.820;37.490;2024-02-15T08:46:11;101338.16;;;-9.30;69.95
80382;BME280;69692;55.820;37.490;2024-02-15T08:48:38;101340.78;;;-9.10;69.63
80382;BME280;69692;55.820;37.490;2024-02-15T08:51:04;101334.91;;;-8.94;69.13
80382;BME280;69692;55.820;37.490;2024-02-15T08:53:31;101345.13;;;-9.10;68.45
80382;BME280;69692;55.820;37.490;2024-02-15T08:55:57;101329.00;;;-8.98;68.73
80382;BME280;69692;55.820;37.490;2024-02-15T08:58:23;101337.00;;;-8.82;68.06
80382;BME280;69692;55.820;37.490;2024-02-15T09:00:49;101338.97;;;-8.87;67.68
80382;BME280;69692;55.820;37.490;2024-02-15T09:03:15;101332.84;;;-8.86;67.99
80382;BME280;69692;55.820;37.490;2024-02-15T09:05:41;101333.28;;;-8.97;68.50
80382;BME280;69692;55.820;37.490;2024-02-15T09:08:07;101326.03;;;-9.31;68.07
80382;BME280;69692;55.820;37.490;2024-02-15T09:10:33;101343.63;;;-9.36;67.90
80382;BME280;69692;55.820;37.490;2024-02-15T09:13:01;101343.31;;;-9.50;68.39
80382;BME280;69692;55.820;37.490;2024-02-15T09:15:27;101335.63;;;-9.53;68.69
80382;BME280;69692;55.820;37.490;2024-02-15T09:17:56;101336.03;;;-9.42;68.51
80382;BME280;69692;55.820;37.490;2024-02-15T09:20:23;101337.03;;;-9.24;68.47
80382;BME280;69692;55.820;37.490;2024-02-15T09:22:54;101347.78;;;-9.32;67.69
80382;BME280;69692;55.820;37.490;2024-02-15T09:25:21;101350.47;;;-9.34;68.23
80382;BME280;69692;55.820;37.490;2024-02-15T09:27:51;101348.50;;;-9.28;67.81
80382;BME280;69692;55.820;37.490;2024-02-15T09:30:17;101339.06;;;-9.31;68.46
80382;BME280;69692;55.820;37.490;2024-02-15T09:32:44;101350.47;;;-9.34;68.62
80382;BME280;69692;55.820;37.490;2024-02-15T09:35:11;101343.06;;;-9.44;68.38
80382;BME280;69692;55.820;37.490;2024-02-15T09:37:56;101343.19;;;-9.47;68.55
80382;BME280;69692;55.820;37.490;2024-02-15T09:40:22;101345.94;;;-9.50;68.15
80382;BME280;69692;55.820;37.490;2024-02-15T09:43:10;101339.50;;;-9.64;67.48
80382;BME280;69692;55.820;37.490;2024-02-15T09:45:39;101342.28;;;-9.68;69.14
80382;BME280;69692;55.820;37.490;2024-02-15T09:48:06;101356.06;;;-9.65;68.13
80382;BME280;69692;55.820;37.490;2024-02-15T09:50:34;101351.94;;;-9.48;68.29
80382;BME280;69692;55.820;37.490;2024-02-15T09:53:21;101358.97;;;-9.50;68.01
80382;BME280;69692;55.820;37.490;2024-02-15T09:55:47;101351.00;;;-9.69;68.44
80382;BME280;69692;55.820;37.490;2024-02-15T09:58:14;101348.09;;;-9.62;68.35
80382;BME280;69692;55.820;37.490;2024-02-15T10:00:40;101357.69;;;-9.62;68.75
80382;BME280;69692;55.820;37.490;2024-02-15T10:03:09;101361.63;;;-9.52;68.91
80382;BME280;69692;55.820;37.490;2024-02-15T10:05:37;101359.91;;;-9.31;68.32
80382;BME280;69692;55.820;37.490;2024-02-15T10:08:05;101356.13;;;-9.24;68.65
80382;BME280;69692;55.820;37.490;2024-02-15T10:10:33;101355.50;;;-9.09;68.48
80382;BME280;69692;55.820;37.490;2024-02-15T10:13:01;101358.84;;;-9.05;67.75
80382;BME280;69692;55.820;37.490;2024-02-15T10:15:34;101368.53;;;-9.09;66.98
80382;BME280;69692;55.820;37.490;2024-02-15T10:18:04;101361.47;;;-9.27;67.45
80382;BME280;69692;55.820;37.490;2024-02-15T10:20:31;101356.25;;;-9.27;68.19
80382;BME280;69692;55.820;37.490;2024-02-15T10:25:28;101356.41;;;-9.30;67.47
80382;BME280;69692;55.820;37.490;2024-02-15T10:28:08;101359.72;;;-9.26;67.40
80382;BME280;69692;55.820;37.490;2024-02-15T10:30:35;101361.59;;;-9.30;67.85
80382;BME280;69692;55.820;37.490;2024-02-15T10:33:02;101358.94;;;-9.28;68.10
80382;BME280;69692;55.820;37.490;2024-02-15T10:35:28;101366.94;;;-9.33;67.64
80382;BME280;69692;55.820;37.490;2024-02-15T10:38:08;101363.56;;;-9.35;67.80
80382;BME280;69692;55.820;37.490;2024-02-15T10:40:35;101368.16;;;-9.20;68.34
80382;BME280;69692;55.820;37.490;2024-02-15T10:43:04;101359.41;;;-9.19;67.09
80382;BME280;69692;55.820;37.490;2024-02-15T10:45:32;101366.81;;;-9.30;66.82
80382;BME280;69692;55.820;37.490;2024-02-15T10:47:58;101376.19;;;-9.26;68.51
80382;BME280;69692;55.820;37.490;2024-02-15T10:50:24;101363.28;;;-9.07;68.41
80382;BME280;69692;55.820;37.490;2024-02-15T10:53:25;101363.47;;;-9.12;67.62
80382;BME280;69692;55.820;37.490;2024-02-15T10:59:00;101364.38;;;-9.13;68.16
80382;BME280;69692;55.820;37.490;2024-02-15T11:01:32;101355.25;;;-9.03;68.14
80382;BME280;69692;55.820;37.490;2024-02-15T11:04:07;101367.13;;;-8.95;68.84
80382;BME280;69692;55.820;37.490;2024-02-15T11:06:38;101353.56;;;-8.83;67.57
80382;BME280;69692;55.820;37.490;2024-02-15T11:09:08;101361.09;;;-8.76;67.59
80382;BME280;69692;55.820;37.490;2024-02-15T11:11:55;101354.03;;;-8.74;66.67
80382;BME280;69692;55.820;37.490;2024-02-15T11:16:58;101357.75;;;-8.59;66.07
80382;BME280;69692;55.820;37.490;2024-02-15T11:22:12;101367.91;;;-8.53;65.41
80382;BME280;69692;55.820;37.490;2024-02-15T11:24:50;101364.53;;;-8.75;65.46
80382;BME280;69692;55.820;37.490;2024-02-15T11:27:28;101366.88;;;-8.69;65.79
80382;BME280;69692;55.820;37.490;2024-02-15T11:29:58;101371.03;;;-8.65;66.00
80382;BME280;69692;55.820;37.490;2024-02-15T11:32:38;101363.69;;;-8.76;66.48
80382;BME280;69692;55.820;37.490;2024-02-15T11:35:16;101374.97;;;-8.75;66.03
80382;BME280;69692;55.820;37.490;2024-02-15T11:40:28;101382.53;;;-8.89;67.23
80382;BME280;69692;55.820;37.490;2024-02-15T11:43:00;101382.53;;;-8.89;67.22
80382;BME280;69692;55.820;37.490;2024-02-15T11:45:27;101388.81;;;-8.95;67.04
80382;BME280;69692;55.820;37.490;2024-02-15T11:48:03;101391.06;;;-8.86;67.45
80382;BME280;69692;55.820;37.490;2024-02-15T11:50:34;101383.44;;;-8.90;66.59
80382;BME280;69692;55.820;37.490;2024-02-15T11:53:04;101395.50;;;-8.88;67.13
80382;BME280;69692;55.820;37.490;2024-02-15T11:55:37;101380.78;;;-8.89;67.21
80382;BME280;69692;55.820;37.490;2024-02-15T11:58:04;101393.41;;;-9.00;68.66
80382;BME280;69692;55.820;37.490;2024-02-15T12:00:38;101383.59;;;-9.15;68.61
80382;BME280;69692;55.820;37.490;2024-02-15T12:03:23;101389.22;;;-9.26;68.89
80382;BME280;69692;55.820;37.490;2024-02-15T12:06:08;101382.38;;;-9.28;69.29
80382;BME280;69692;55.820;37.490;2024-02-15T12:08:53;101385.41;;;-9.39;69.59
80382;BME280;69692;55.820;37.490;2024-02-15T12:11:38;101383.00;;;-9.22;69.27
80382;BME280;69692;55.820;37.490;2024-02-15T12:14:23;101380.75;;;-9.31;69.72
80382;BME280;69692;55.820;37.490;2024-02-15T12:17:12;101388.44;;;-9.28;69.88
80382;BME280;69692;55.820;37.490;2024-02-15T12:20:00;101390.53;;;-9.36;69.23
80382;BME280;69692;55.820;37.490;2024-02-15T12:22:31;101400.03;;;-9.35;70.07
80382;BME280;69692;55.820;37.490;2024-02-15T12:25:02;101403.03;;;-9.24;70.73
80382;BME280;69692;55.820;37.490;2024-02-15T12:27:43;101395.41;;;-9.28;70.92
80382;BME280;69692;55.820;37.490;2024-02-15T12:30:19;101392.81;;;-9.28;70.67
80382;BME280;69692;55.820;37.490;2024-02-15T12:32:48;101390.91;;;-9.25;71.76
80382;BME280;69692;55.820;37.490;2024-02-15T12:35:21;101395.78;;;-9.16;71.09
80382;BME280;69692;55.820;37.490;2024-02-15T12:40:30;101402.56;;;-9.12;69.71
80382;BME280;69692;55.820;37.490;2024-02-15T12:42:56;101399.94;;;-9.12;70.38
80382;BME280;69692;55.820;37.490;2024-02-15T12:45:25;101392.84;;;-9.08;69.94
80382;BME280;69692;55.820;37.490;2024-02-15T12:47:54;101387.91;;;-9.14;69.60
80382;BME280;69692;55.820;37.490;2024-02-15T12:50:21;101399.38;;;-9.18;70.15
80382;BME280;69692;55.820;37.490;2024-02-15T12:52:48;101399.88;;;-9.10;70.41
80382;BME280;69692;55.820;37.490;2024-02-15T12:57:49;101401.41;;;-9.05;69.87
80382;BME280;69692;55.820;37.490;2024-02-15T13:00:36;101401.56;;;-9.09;69.71
80382;BME280;69692;55.820;37.490;2024-02-15T13:03:06;101407.63;;;-9.09;69.52
80382;BME280;69692;55.820;37.490;2024-02-15T13:05:35;101404.03;;;-9.05;69.58